Terminal Aerodrome Forecast
Issued by NWS Cleveland, OH

Home | Current Version | Previous Version | Graphics & Text | Print | Product List | Glossary On
Versions: 1 2 3 4 5 6 7 8 9 10 11 12 13 14 15
593
FTUS41 KCLE 221130 CCA
TAFYNG
TAF COR
KYNG 221130Z 2212/2312 00000KT 4SM BR SCT004 BKN100
      TEMPO 2212/2213 BR BKN004
     FM221400 34006KT P6SM SCT035 BKN100
     FM221700 35012KT P6SM VCSH SCT025 BKN035
     FM222200 35005KT P6SM SCT035
     FM230800 VRB03KT P6SM SKC=

USA.gov is the U.S. government's official web portal to all federal, state and local government web resources and services.